sensor_id;sensor_type;location;lat;lon;timestamp;P1;durP1;ratioP1;P2;durP2;ratioP2
9222;SDS011;7557;51.698;3.942;2023-07-29T00:01:02;786.08;;;743.25;;
9222;SDS011;7557;51.698;3.942;2023-07-29T00:03:29;772.60;;;729.42;;
9222;SDS011;7557;51.698;3.942;2023-07-29T00:05:57;751.60;;;712.33;;
9222;SDS011;7557;51.698;3.942;2023-07-29T00:08:24;757.70;;;718.70;;
9222;SDS011;7557;51.698;3.942;2023-07-29T00:10:51;736.67;;;699.45;;
9222;SDS011;7557;51.698;3.942;2023-07-29T00:13:19;768.97;;;728.83;;
9222;SDS011;7557;51.698;3.942;2023-07-29T00:15:48;735.22;;;698.47;;
9222;SDS011;7557;51.698;3.942;2023-07-29T00:18:15;747.55;;;708.92;;
9222;SDS011;7557;51.698;3.942;2023-07-29T00:20:42;725.40;;;688.97;;
9222;SDS011;7557;51.698;3.942;2023-07-29T00:23:10;739.22;;;701.53;;
9222;SDS011;7557;51.698;3.942;2023-07-29T00:25:38;778.22;;;737.13;;
9222;SDS011;7557;51.698;3.942;2023-07-29T00:28:05;743.70;;;706.33;;
9222;SDS011;7557;51.698;3.942;2023-07-29T00:30:32;735.10;;;698.60;;
9222;SDS011;7557;51.698;3.942;2023-07-29T00:33:01;740.67;;;704.25;;
9222;SDS011;7557;51.698;3.942;2023-07-29T00:35:29;717.67;;;682.20;;
9222;SDS011;7557;51.698;3.942;2023-07-29T00:37:59;714.47;;;679.00;;
9222;SDS011;7557;51.698;3.942;2023-07-29T00:40:27;697.90;;;664.92;;
9222;SDS011;7557;51.698;3.942;2023-07-29T00:42:55;703.58;;;668.63;;
9222;SDS011;7557;51.698;3.942;2023-07-29T00:48:45;662.70;;;633.25;;
9222;SDS011;7557;51.698;3.942;2023-07-29T00:51:13;673.72;;;642.55;;
9222;SDS011;7557;51.698;3.942;2023-07-29T00:53:40;708.88;;;675.35;;
9222;SDS011;7557;51.698;3.942;2023-07-29T00:56:07;696.97;;;663.85;;
9222;SDS011;7557;51.698;3.942;2023-07-29T00:58:35;703.53;;;669.25;;
9222;SDS011;7557;51.698;3.942;2023-07-29T01:01:02;694.53;;;662.90;;
9222;SDS011;7557;51.698;3.942;2023-07-29T01:03:29;669.58;;;638.20;;
9222;SDS011;7557;51.698;3.942;2023-07-29T01:06:01;711.47;;;676.47;;
9222;SDS011;7557;51.698;3.942;2023-07-29T01:08:37;682.50;;;651.03;;
9222;SDS011;7557;51.698;3.942;2023-07-29T01:11:13;678.40;;;646.92;;
9222;SDS011;7557;51.698;3.942;2023-07-29T01:13:53;673.92;;;642.90;;
9222;SDS011;7557;51.698;3.942;2023-07-29T01:16:29;694.45;;;661.78;;
9222;SDS011;7557;51.698;3.942;2023-07-29T01:19:01;708.13;;;674.55;;
9222;SDS011;7557;51.698;3.942;2023-07-29T01:21:33;695.35;;;662.65;;
9222;SDS011;7557;51.698;3.942;2023-07-29T01:24:03;687.72;;;655.85;;
9222;SDS011;7557;51.698;3.942;2023-07-29T01:26:31;715.95;;;681.35;;
9222;SDS011;7557;51.698;3.942;2023-07-29T01:28:58;698.22;;;664.42;;
9222;SDS011;7557;51.698;3.942;2023-07-29T01:31:27;715.22;;;680.67;;
9222;SDS011;7557;51.698;3.942;2023-07-29T01:34:01;694.33;;;661.40;;
9222;SDS011;7557;51.698;3.942;2023-07-29T01:36:33;707.45;;;674.53;;
9222;SDS011;7557;51.698;3.942;2023-07-29T01:39:07;688.15;;;655.45;;
9222;SDS011;7557;51.698;3.942;2023-07-29T01:41:36;721.58;;;686.53;;
9222;SDS011;7557;51.698;3.942;2023-07-29T01:44:04;690.88;;;657.50;;
9222;SDS011;7557;51.698;3.942;2023-07-29T01:46:33;704.50;;;669.50;;
9222;SDS011;7557;51.698;3.942;2023-07-29T01:49:00;713.85;;;679.88;;
9222;SDS011;7557;51.698;3.942;2023-07-29T01:51:27;708.83;;;674.60;;
9222;SDS011;7557;51.698;3.942;2023-07-29T01:53:54;712.00;;;677.70;;
9222;SDS011;7557;51.698;3.942;2023-07-29T01:56:23;705.58;;;671.67;;
9222;SDS011;7557;51.698;3.942;2023-07-29T01:58:50;708.17;;;674.03;;
9222;SDS011;7557;51.698;3.942;2023-07-29T02:01:17;703.03;;;669.63;;
9222;SDS011;7557;51.698;3.942;2023-07-29T02:03:45;704.53;;;670.47;;
9222;SDS011;7557;51.698;3.942;2023-07-29T02:06:12;701.95;;;668.08;;
9222;SDS011;7557;51.698;3.942;2023-07-29T02:08:39;703.10;;;670.42;;
9222;SDS011;7557;51.698;3.942;2023-07-29T02:11:06;679.78;;;648.40;;
9222;SDS011;7557;51.698;3.942;2023-07-29T02:13:35;709.85;;;676.03;;
9222;SDS011;7557;51.698;3.942;2023-07-29T02:16:02;667.17;;;636.58;;
9222;SDS011;7557;51.698;3.942;2023-07-29T02:18:29;712.03;;;677.83;;
9222;SDS011;7557;51.698;3.942;2023-07-29T02:20:56;714.65;;;680.00;;
9222;SDS011;7557;51.698;3.942;2023-07-29T02:23:24;706.00;;;671.50;;
9222;SDS011;7557;51.698;3.942;2023-07-29T02:25:51;684.83;;;652.50;;
9222;SDS011;7557;51.698;3.942;2023-07-29T02:28:18;733.30;;;697.28;;
9222;SDS011;7557;51.698;3.942;2023-07-29T02:30:47;710.25;;;675.40;;
9222;SDS011;7557;51.698;3.942;2023-07-29T02:33:40;682.97;;;651.35;;
9222;SDS011;7557;51.698;3.942;2023-07-29T02:36:09;717.95;;;683.28;;
9222;SDS011;7557;51.698;3.942;2023-07-29T02:38:42;703.30;;;668.80;;
9222;SDS011;7557;51.698;3.942;2023-07-29T02:41:09;738.33;;;701.17;;
9222;SDS011;7557;51.698;3.942;2023-07-29T02:43:38;690.33;;;657.33;;
9222;SDS011;7557;51.698;3.942;2023-07-29T02:46:07;708.58;;;674.33;;
9222;SDS011;7557;51.698;3.942;2023-07-29T02:48:34;715.22;;;680.00;;
9222;SDS011;7557;51.698;3.942;2023-07-29T02:51:01;723.75;;;687.40;;
9222;SDS011;7557;51.698;3.942;2023-07-29T02:53:28;712.50;;;677.65;;
9222;SDS011;7557;51.698;3.942;2023-07-29T02:55:56;726.88;;;688.67;;
9222;SDS011;7557;51.698;3.942;2023-07-29T02:58:23;718.13;;;683.22;;
9222;SDS011;7557;51.698;3.942;2023-07-29T03:00:51;721.15;;;684.90;;
9222;SDS011;7557;51.698;3.942;2023-07-29T03:03:20;673.58;;;640.92;;
9222;SDS011;7557;51.698;3.942;2023-07-29T03:05:47;731.65;;;694.90;;
9222;SDS011;7557;51.698;3.942;2023-07-29T03:08:14;717.20;;;682.30;;
9222;SDS011;7557;51.698;3.942;2023-07-29T03:10:41;737.05;;;699.45;;
9222;SDS011;7557;51.698;3.942;2023-07-29T03:13:08;698.78;;;664.42;;
9222;SDS011;7557;51.698;3.942;2023-07-29T03:15:36;695.47;;;661.55;;
9222;SDS011;7557;51.698;3.942;2023-07-29T03:18:03;723.10;;;686.17;;
9222;SDS011;7557;51.698;3.942;2023-07-29T03:20:31;726.88;;;689.33;;
9222;SDS011;7557;51.698;3.942;2023-07-29T03:22:59;704.35;;;668.70;;
9222;SDS011;7557;51.698;3.942;2023-07-29T03:25:26;713.45;;;677.17;;
9222;SDS011;7557;51.698;3.942;2023-07-29T03:27:54;741.00;;;702.25;;
9222;SDS011;7557;51.698;3.942;2023-07-29T03:30:21;696.13;;;662.45;;
9222;SDS011;7557;51.698;3.942;2023-07-29T03:32:48;789.25;;;745.42;;
9222;SDS011;7557;51.698;3.942;2023-07-29T03:35:16;751.00;;;710.97;;
9222;SDS011;7557;51.698;3.942;2023-07-29T03:37:45;756.17;;;715.15;;
9222;SDS011;7557;51.698;3.942;2023-07-29T03:40:13;742.35;;;703.53;;
9222;SDS011;7557;51.698;3.942;2023-07-29T03:42:40;769.72;;;727.53;;
9222;SDS011;7557;51.698;3.942;2023-07-29T03:45:08;753.17;;;711.45;;
9222;SDS011;7557;51.698;3.942;2023-07-29T03:47:37;760.50;;;720.63;;
9222;SDS011;7557;51.698;3.942;2023-07-29T03:50:04;765.80;;;724.00;;
9222;SDS011;7557;51.698;3.942;2023-07-29T03:52:32;788.63;;;744.03;;
9222;SDS011;7557;51.698;3.942;2023-07-29T03:55:01;825.05;;;775.17;;
9222;SDS011;7557;51.698;3.942;2023-07-29T03:57:28;842.22;;;791.63;;
9222;SDS011;7557;51.698;3.942;2023-07-29T03:59:56;830.53;;;780.15;;
9222;SDS011;7557;51.698;3.942;2023-07-29T04:02:23;843.40;;;790.80;;
9222;SDS011;7557;51.698;3.942;2023-07-29T04:04:50;865.10;;;811.53;;
9222;SDS011;7557;51.698;3.942;2023-07-29T04:07:18;926.75;;;863.83;;
9222;SDS011;7557;51.698;3.942;2023-07-29T04:09:45;907.33;;;847.45;;
9222;SDS011;7557;51.698;3.942;2023-07-29T04:12:14;880.88;;;824.55;;
9222;SDS011;7557;51.698;3.942;2023-07-29T04:14:41;896.72;;;837.55;;
9222;SDS011;7557;51.698;3.942;2023-07-29T04:17:09;863.08;;;809.10;;
9222;SDS011;7557;51.698;3.942;2023-07-29T04:19:40;876.55;;;821.28;;
9222;SDS011;7557;51.698;3.942;2023-07-29T04:22:07;854.20;;;801.63;;
9222;SDS011;7557;51.698;3.942;2023-07-29T04:24:35;931.42;;;868.70;;
9222;SDS011;7557;51.698;3.942;2023-07-29T04:27:02;929.53;;;865.67;;
9222;SDS011;7557;51.698;3.942;2023-07-29T04:29:31;960.72;;;891.25;;
9222;SDS011;7557;51.698;3.942;2023-07-29T04:32:00;946.33;;;878.50;;
9222;SDS011;7557;51.698;3.942;2023-07-29T04:34:30;1005.00;;;928.40;;
9222;SDS011;7557;51.698;3.942;2023-07-29T04:36:58;972.00;;;899.10;;
9222;SDS011;7557;51.698;3.942;2023-07-29T04:39:25;968.60;;;897.22;;
9222;SDS011;7557;51.698;3.942;2023-07-29T04:41:53;959.95;;;889.88;;
9222;SDS011;7557;51.698;3.942;2023-07-29T04:44:22;980.17;;;909.08;;
9222;SDS011;7557;51.698;3.942;2023-07-29T04:46:51;979.88;;;906.55;;
9222;SDS011;7557;51.698;3.942;2023-07-29T04:49:18;989.75;;;916.03;;
9222;SDS011;7557;51.698;3.942;2023-07-29T04:51:46;970.20;;;898.90;;
9222;SDS011;7557;51.698;3.942;2023-07-29T04:54:13;1011.25;;;930.83;;
9222;SDS011;7557;51.698;3.942;2023-07-29T04:56:41;1028.25;;;947.53;;
9222;SDS011;7557;51.698;3.942;2023-07-29T04:59:08;1007.40;;;930.03;;
9222;SDS011;7557;51.698;3.942;2023-07-29T05:01:38;1017.72;;;937.08;;
9222;SDS011;7557;51.698;3.942;2023-07-29T05:04:09;1052.15;;;965.33;;
9222;SDS011;7557;51.698;3.942;2023-07-29T05:06:36;1020.28;;;937.97;;
9222;SDS011;7557;51.698;3.942;2023-07-29T05:09:12;1075.55;;;983.92;;
9222;SDS011;7557;51.698;3.942;2023-07-29T05:11:40;1060.57;;;973.08;;
9222;SDS011;7557;51.698;3.942;2023-07-29T05:14:09;1032.07;;;948.22;;
9222;SDS011;7557;51.698;3.942;2023-07-29T05:16:36;1020.60;;;939.63;;
9222;SDS011;7557;51.698;3.942;2023-07-29T05:19:03;996.90;;;917.90;;
9222;SDS011;7557;51.698;3.942;2023-07-29T05:21:32;1025.72;;;941.70;;
9222;SDS011;7557;51.698;3.942;2023-07-29T05:24:00;1048.85;;;962.97;;
9222;SDS011;7557;51.698;3.942;2023-07-29T05:26:27;1038.53;;;956.25;;
9222;SDS011;7557;51.698;3.942;2023-07-29T05:28:55;963.45;;;893.38;;
9222;SDS011;7557;51.698;3.942;2023-07-29T05:31:22;970.38;;;900.75;;
9222;SDS011;7557;51.698;3.942;2023-07-29T05:33:50;1021.88;;;940.53;;
9222;SDS011;7557;51.698;3.942;2023-07-29T05:36:17;997.67;;;922.83;;
9222;SDS011;7557;51.698;3.942;2023-07-29T05:38:46;998.28;;;921.97;;
9222;SDS011;7557;51.698;3.942;2023-07-29T05:41:14;986.88;;;912.08;;
9222;SDS011;7557;51.698;3.942;2023-07-29T05:43:42;1030.78;;;950.30;;
9222;SDS011;7557;51.698;3.942;2023-07-29T05:46:10;1072.72;;;981.20;;
9222;SDS011;7557;51.698;3.942;2023-07-29T05:48:37;1017.33;;;935.40;;
9222;SDS011;7557;51.698;3.942;2023-07-29T05:51:05;1057.20;;;968.10;;
9222;SDS011;7557;51.698;3.942;2023-07-29T05:53:32;1060.10;;;970.22;;
9222;SDS011;7557;51.698;3.942;2023-07-29T05:56:01;1035.28;;;950.97;;
9222;SDS011;7557;51.698;3.942;2023-07-29T05:58:28;1007.30;;;927.15;;
9222;SDS011;7557;51.698;3.942;2023-07-29T06:00:56;937.38;;;871.92;;
9222;SDS011;7557;51.698;3.942;2023-07-29T06:03:23;1027.25;;;948.63;;
9222;SDS011;7557;51.698;3.942;2023-07-29T06:05:51;995.95;;;920.60;;
9222;SDS011;7557;51.698;3.942;2023-07-29T06:08:18;1001.90;;;927.55;;
9222;SDS011;7557;51.698;3.942;2023-07-29T06:10:46;939.92;;;876.97;;
9222;SDS011;7557;51.698;3.942;2023-07-29T06:13:15;953.95;;;889.08;;
9222;SDS011;7557;51.698;3.942;2023-07-29T06:15:42;871.58;;;817.40;;
9222;SDS011;7557;51.698;3.942;2023-07-29T06:18:09;883.85;;;828.85;;
9222;SDS011;7557;51.698;3.942;2023-07-29T06:20:37;839.03;;;791.15;;
9222;SDS011;7557;51.698;3.942;2023-07-29T06:23:04;799.38;;;755.42;;
9222;SDS011;7557;51.698;3.942;2023-07-29T06:25:31;641.60;;;611.15;;
9222;SDS011;7557;51.698;3.942;2023-07-29T06:27:59;647.95;;;618.17;;
9222;SDS011;7557;51.698;3.942;2023-07-29T06:30:28;683.47;;;649.78;;
9222;SDS011;7557;51.698;3.942;2023-07-29T06:32:55;664.42;;;632.88;;
9222;SDS011;7557;51.698;3.942;2023-07-29T06:35:23;723.92;;;687.13;;
9222;SDS011;7557;51.698;3.942;2023-07-29T06:37:50;763.17;;;723.20;;
9222;SDS011;7557;51.698;3.942;2023-07-29T06:40:17;792.78;;;749.58;;
9222;SDS011;7557;51.698;3.942;2023-07-29T06:42:44;734.80;;;697.33;;
9222;SDS011;7557;51.698;3.942;2023-07-29T06:45:12;752.05;;;713.88;;
9222;SDS011;7557;51.698;3.942;2023-07-29T06:47:42;699.78;;;666.75;;
9222;SDS011;7557;51.698;3.942;2023-07-29T06:50:09;627.25;;;599.72;;
9222;SDS011;7557;51.698;3.942;2023-07-29T06:52:36;556.67;;;533.72;;
9222;SDS011;7557;51.698;3.942;2023-07-29T06:55:05;527.50;;;506.17;;
9222;SDS011;7557;51.698;3.942;2023-07-29T06:57:33;562.72;;;539.13;;
9222;SDS011;7557;51.698;3.942;2023-07-29T07:00:01;522.33;;;501.33;;
9222;SDS011;7557;51.698;3.942;2023-07-29T07:02:29;542.33;;;520.10;;
9222;SDS011;7557;51.698;3.942;2023-07-29T07:04:58;633.83;;;605.55;;
9222;SDS011;7557;51.698;3.942;2023-07-29T07:07:25;654.95;;;625.03;;
9222;SDS011;7557;51.698;3.942;2023-07-29T07:09:53;714.85;;;680.50;;
9222;SDS011;7557;51.698;3.942;2023-07-29T07:12:20;706.90;;;672.38;;
9222;SDS011;7557;51.698;3.942;2023-07-29T07:14:48;741.63;;;704.75;;
9222;SDS011;7557;51.698;3.942;2023-07-29T07:17:15;726.92;;;691.63;;
9222;SDS011;7557;51.698;3.942;2023-07-29T07:19:43;746.03;;;710.20;;
9222;SDS011;7557;51.698;3.942;2023-07-29T07:22:13;733.15;;;697.85;;
9222;SDS011;7557;51.698;3.942;2023-07-29T07:24:40;694.25;;;661.55;;
9222;SDS011;7557;51.698;3.942;2023-07-29T07:27:07;699.15;;;666.55;;
9222;SDS011;7557;51.698;3.942;2023-07-29T07:29:35;689.40;;;656.85;;
9222;SDS011;7557;51.698;3.942;2023-07-29T07:32:02;707.28;;;673.97;;
9222;SDS011;7557;51.698;3.942;2023-07-29T07:34:30;703.00;;;669.83;;
9222;SDS011;7557;51.698;3.942;2023-07-29T07:36:58;708.85;;;675.35;;
9222;SDS011;7557;51.698;3.942;2023-07-29T07:39:27;733.15;;;696.97;;
9222;SDS011;7557;51.698;3.942;2023-07-29T07:41:54;732.05;;;695.67;;
9222;SDS011;7557;51.698;3.942;2023-07-29T07:44:22;768.30;;;729.70;;
9222;SDS011;7557;51.698;3.942;2023-07-29T07:46:51;713.65;;;679.75;;
9222;SDS011;7557;51.698;3.942;2023-07-29T07:49:19;742.78;;;705.30;;
9222;SDS011;7557;51.698;3.942;2023-07-29T07:51:46;694.90;;;662.47;;
9222;SDS011;7557;51.698;3.942;2023-07-29T07:54:14;648.40;;;619.90;;
9222;SDS011;7557;51.698;3.942;2023-07-29T07:56:42;630.42;;;603.10;;
9222;SDS011;7557;51.698;3.942;2023-07-29T07:59:10;709.58;;;675.03;;
9222;SDS011;7557;51.698;3.942;2023-07-29T08:01:38;727.10;;;691.25;;
9222;SDS011;7557;51.698;3.942;2023-07-29T08:04:06;747.50;;;709.78;;
9222;SDS011;7557;51.698;3.942;2023-07-29T08:06:33;734.50;;;698.45;;
9222;SDS011;7557;51.698;3.942;2023-07-29T08:09:00;740.45;;;703.85;;
9222;SDS011;7557;51.698;3.942;2023-07-29T08:11:28;724.03;;;688.95;;
9222;SDS011;7557;51.698;3.942;2023-07-29T08:13:57;739.85;;;703.72;;
9222;SDS011;7557;51.698;3.942;2023-07-29T08:16:25;730.53;;;695.15;;
9222;SDS011;7557;51.698;3.942;2023-07-29T08:18:52;709.95;;;675.20;;
9222;SDS011;7557;51.698;3.942;2023-07-29T08:21:20;685.85;;;654.25;;
9222;SDS011;7557;51.698;3.942;2023-07-29T08:23:47;733.25;;;696.47;;
9222;SDS011;7557;51.698;3.942;2023-07-29T08:26:15;740.78;;;704.40;;
9222;SDS011;7557;51.698;3.942;2023-07-29T08:28:42;719.47;;;684.85;;
9222;SDS011;7557;51.698;3.942;2023-07-29T08:31:12;728.40;;;692.45;;
9222;SDS011;7557;51.698;3.942;2023-07-29T08:33:39;735.90;;;699.17;;
9222;SDS011;7557;51.698;3.942;2023-07-29T08:36:06;723.72;;;687.97;;
9222;SDS011;7557;51.698;3.942;2023-07-29T08:38:34;714.20;;;680.70;;
9222;SDS011;7557;51.698;3.942;2023-07-29T08:41:04;789.03;;;746.35;;
9222;SDS011;7557;51.698;3.942;2023-07-29T08:43:38;800.60;;;755.83;;
9222;SDS011;7557;51.698;3.942;2023-07-29T08:46:09;850.33;;;797.80;;
9222;SDS011;7557;51.698;3.942;2023-07-29T08:48:40;894.88;;;834.85;;
9222;SDS011;7557;51.698;3.942;2023-07-29T08:51:09;1073.97;;;978.33;;
9222;SDS011;7557;51.698;3.942;2023-07-29T08:53:40;1136.75;;;999.90;;
9222;SDS011;7557;51.698;3.942;2023-07-29T08:56:09;1140.97;;;999.90;;
9222;SDS011;7557;51.698;3.942;2023-07-29T08:58:37;1116.70;;;998.47;;
9222;SDS011;7557;51.698;3.942;2023-07-29T09:01:05;1109.90;;;998.05;;
9222;SDS011;7557;51.698;3.942;2023-07-29T09:03:33;1131.78;;;999.90;;
9222;SDS011;7557;51.698;3.942;2023-07-29T09:06:02;1103.55;;;994.20;;
9222;SDS011;7557;51.698;3.942;2023-07-29T09:08:30;950.83;;;880.33;;
9222;SDS011;7557;51.698;3.942;2023-07-29T09:10:58;946.72;;;873.95;;
9222;SDS011;7557;51.698;3.942;2023-07-29T09:13:26;894.15;;;833.40;;
9222;SDS011;7557;51.698;3.942;2023-07-29T09:15:54;900.13;;;838.40;;
9222;SDS011;7557;51.698;3.942;2023-07-29T09:18:22;915.25;;;850.00;;
9222;SDS011;7557;51.698;3.942;2023-07-29T09:20:52;952.70;;;882.65;;
9222;SDS011;7557;51.698;3.942;2023-07-29T09:23:21;972.38;;;896.22;;
9222;SDS011;7557;51.698;3.942;2023-07-29T09:25:49;995.70;;;914.63;;
9222;SDS011;7557;51.698;3.942;2023-07-29T09:28:16;1051.43;;;959.45;;
9222;SDS011;7557;51.698;3.942;2023-07-29T09:30:45;1011.38;;;928.03;;
9222;SDS011;7557;51.698;3.942;2023-07-29T09:33:13;1050.25;;;956.72;;
9222;SDS011;7557;51.698;3.942;2023-07-29T09:35:41;1084.05;;;982.13;;
9222;SDS011;7557;51.698;3.942;2023-07-29T09:38:08;1090.43;;;988.35;;
9222;SDS011;7557;51.698;3.942;2023-07-29T09:40:44;1099.93;;;991.42;;
9222;SDS011;7557;51.698;3.942;2023-07-29T09:43:12;1080.20;;;981.50;;
9222;SDS011;7557;51.698;3.942;2023-07-29T09:45:43;1073.78;;;975.72;;
9222;SDS011;7557;51.698;3.942;2023-07-29T09:48:13;1059.15;;;967.22;;
9222;SDS011;7557;51.698;3.942;2023-07-29T09:50:40;1085.35;;;985.53;;
9222;SDS011;7557;51.698;3.942;2023-07-29T09:53:08;1096.43;;;992.95;;
9222;SDS011;7557;51.698;3.942;2023-07-29T09:55:35;1073.28;;;976.22;;
9222;SDS011;7557;51.698;3.942;2023-07-29T09:58:04;1054.75;;;963.40;;
9222;SDS011;7557;51.698;3.942;2023-07-29T10:00:33;1069.18;;;974.75;;
9222;SDS011;7557;51.698;3.942;2023-07-29T10:03:03;1088.25;;;987.00;;
9222;SDS011;7557;51.698;3.942;2023-07-29T10:05:31;1052.82;;;959.92;;
9222;SDS011;7557;51.698;3.942;2023-07-29T10:07:59;1132.57;;;999.90;;
9222;SDS011;7557;51.698;3.942;2023-07-29T10:10:28;1103.57;;;992.63;;
9222;SDS011;7557;51.698;3.942;2023-07-29T10:12:57;1135.40;;;999.90;;
9222;SDS011;7557;51.698;3.942;2023-07-29T10:15:28;1157.00;;;999.90;;
9222;SDS011;7557;51.698;3.942;2023-07-29T10:17:58;1190.18;;;999.90;;
9222;SDS011;7557;51.698;3.942;2023-07-29T10:20:27;1189.47;;;999.90;;
9222;SDS011;7557;51.698;3.942;2023-07-29T10:22:57;1195.85;;;999.90;;
9222;SDS011;7557;51.698;3.942;2023-07-29T10:25:28;1214.28;;;999.90;;
9222;SDS011;7557;51.698;3.942;2023-07-29T10:28:04;1222.65;;;999.90;;
9222;SDS011;7557;51.698;3.942;2023-07-29T10:30:34;1138.88;;;999.90;;
9222;SDS011;7557;51.698;3.942;2023-07-29T10:33:02;1145.65;;;999.90;;
9222;SDS011;7557;51.698;3.942;2023-07-29T10:35:30;994.95;;;916.97;;
9222;SDS011;7557;51.698;3.942;2023-07-29T10:37:59;1010.50;;;928.65;;
9222;SDS011;7557;51.698;3.942;2023-07-29T10:40:43;943.78;;;874.25;;
9222;SDS011;7557;51.698;3.942;2023-07-29T10:43:12;930.33;;;865.28;;
9222;SDS011;7557;51.698;3.942;2023-07-29T10:45:47;891.67;;;833.22;;
9222;SDS011;7557;51.698;3.942;2023-07-29T10:48:40;934.17;;;869.35;;
9222;SDS011;7557;51.698;3.942;2023-07-29T10:51:23;852.65;;;800.40;;
9222;SDS011;7557;51.698;3.942;2023-07-29T10:53:59;834.80;;;783.55;;
9222;SDS011;7557;51.698;3.942;2023-07-29T10:56:28;895.92;;;837.83;;
9222;SDS011;7557;51.698;3.942;2023-07-29T10:58:58;711.20;;;675.53;;
9222;SDS011;7557;51.698;3.942;2023-07-29T11:01:30;873.28;;;818.17;;
9222;SDS011;7557;51.698;3.942;2023-07-29T11:09:58;684.35;;;651.90;;
9222;SDS011;7557;51.698;3.942;2023-07-29T11:12:40;721.13;;;685.03;;
9222;SDS011;7557;51.698;3.942;2023-07-29T11:15:15;633.75;;;605.75;;
9222;SDS011;7557;51.698;3.942;2023-07-29T11:17:46;670.05;;;638.35;;
9222;SDS011;7557;51.698;3.942;2023-07-29T11:20:15;667.03;;;636.03;;
9222;SDS011;7557;51.698;3.942;2023-07-29T11:22:44;788.58;;;743.92;;
9222;SDS011;7557;51.698;3.942;2023-07-29T11:25:12;717.15;;;679.85;;
9222;SDS011;7557;51.698;3.942;2023-07-29T11:27:42;731.58;;;696.65;;
9222;SDS011;7557;51.698;3.942;2023-07-29T11:30:10;735.15;;;699.40;;
9222;SDS011;7557;51.698;3.942;2023-07-29T11:32:41;726.20;;;690.92;;
9222;SDS011;7557;51.698;3.942;2023-07-29T11:35:12;734.70;;;698.92;;
9222;SDS011;7557;51.698;3.942;2023-07-29T11:37:41;739.85;;;703.28;;
9222;SDS011;7557;51.698;3.942;2023-07-29T11:40:15;754.50;;;716.33;;
9222;SDS011;7557;51.698;3.942;2023-07-29T11:42:43;762.97;;;724.17;;
9222;SDS011;7557;51.698;3.942;2023-07-29T11:45:12;735.13;;;698.58;;
9222;SDS011;7557;51.698;3.942;2023-07-29T11:47:40;751.60;;;713.55;;
9222;SDS011;7557;51.698;3.942;2023-07-29T11:50:08;765.67;;;726.08;;
9222;SDS011;7557;51.698;3.942;2023-07-29T11:52:39;745.45;;;708.00;;
9222;SDS011;7557;51.698;3.942;2023-07-29T11:55:08;719.03;;;683.42;;
9222;SDS011;7557;51.698;3.942;2023-07-29T11:57:36;709.78;;;675.70;;
9222;SDS011;7557;51.698;3.942;2023-07-29T12:00:05;654.50;;;625.20;;
9222;SDS011;7557;51.698;3.942;2023-07-29T12:02:35;673.85;;;643.17;;
9222;SDS011;7557;51.698;3.942;2023-07-29T12:05:04;647.20;;;617.70;;
9222;SDS011;7557;51.698;3.942;2023-07-29T12:07:33;655.60;;;625.33;;
9222;SDS011;7557;51.698;3.942;2023-07-29T12:10:03;639.35;;;610.85;;
9222;SDS011;7557;51.698;3.942;2023-07-29T12:12:31;696.42;;;663.22;;
9222;SDS011;7557;51.698;3.942;2023-07-29T12:14:58;693.60;;;660.90;;
9222;SDS011;7557;51.698;3.942;2023-07-29T12:17:26;668.50;;;637.83;;
9222;SDS011;7557;51.698;3.942;2023-07-29T12:19:54;626.83;;;599.47;;
9222;SDS011;7557;51.698;3.942;2023-07-29T12:22:25;625.67;;;598.25;;
9222;SDS011;7557;51.698;3.942;2023-07-29T12:24:53;655.42;;;626.15;;
9222;SDS011;7557;51.698;3.942;2023-07-29T12:27:24;677.10;;;645.42;;
9222;SDS011;7557;51.698;3.942;2023-07-29T12:29:52;664.38;;;633.67;;
9222;SDS011;7557;51.698;3.942;2023-07-29T12:32:20;669.20;;;638.80;;
9222;SDS011;7557;51.698;3.942;2023-07-29T12:34:52;713.97;;;680.70;;
9222;SDS011;7557;51.698;3.942;2023-07-29T12:37:20;721.80;;;687.30;;
9222;SDS011;7557;51.698;3.942;2023-07-29T12:39:58;686.20;;;653.95;;
9222;SDS011;7557;51.698;3.942;2023-07-29T12:42:27;721.63;;;686.40;;
9222;SDS011;7557;51.698;3.942;2023-07-29T12:44:54;742.42;;;706.45;;
9222;SDS011;7557;51.698;3.942;2023-07-29T12:47:22;733.55;;;697.17;;
9222;SDS011;7557;51.698;3.942;2023-07-29T12:49:50;733.55;;;697.00;;
9222;SDS011;7557;51.698;3.942;2023-07-29T12:52:17;759.20;;;720.40;;
9222;SDS011;7557;51.698;3.942;2023-07-29T12:54:44;803.10;;;759.63;;
9222;SDS011;7557;51.698;3.942;2023-07-29T12:57:12;774.55;;;734.00;;
9222;SDS011;7557;51.698;3.942;2023-07-29T12:59:40;799.78;;;757.00;;
9222;SDS011;7557;51.698;3.942;2023-07-29T13:02:10;786.17;;;743.85;;
9222;SDS011;7557;51.698;3.942;2023-07-29T13:04:37;772.72;;;732.65;;
9222;SDS011;7557;51.698;3.942;2023-07-29T13:07:05;777.60;;;736.45;;
9222;SDS011;7557;51.698;3.942;2023-07-29T13:09:32;760.22;;;721.22;;
9222;SDS011;7557;51.698;3.942;2023-07-29T13:12:00;828.85;;;781.70;;
9222;SDS011;7557;51.698;3.942;2023-07-29T13:14:28;905.30;;;844.55;;
9222;SDS011;7557;51.698;3.942;2023-07-29T13:16:56;820.25;;;775.10;;
9222;SDS011;7557;51.698;3.942;2023-07-29T13:19:24;786.35;;;744.50;;
9222;SDS011;7557;51.698;3.942;2023-07-29T13:21:51;784.53;;;743.17;;
9222;SDS011;7557;51.698;3.942;2023-07-29T13:24:19;829.97;;;781.35;;
9222;SDS011;7557;51.698;3.942;2023-07-29T13:26:46;802.38;;;758.42;;
9222;SDS011;7557;51.698;3.942;2023-07-29T13:29:13;798.78;;;755.70;;
9222;SDS011;7557;51.698;3.942;2023-07-29T13:31:41;829.60;;;783.53;;
9222;SDS011;7557;51.698;3.942;2023-07-29T13:34:09;794.80;;;752.30;;
9222;SDS011;7557;51.698;3.942;2023-07-29T13:36:37;808.63;;;763.90;;
9222;SDS011;7557;51.698;3.942;2023-07-29T13:39:04;820.88;;;775.08;;
9222;SDS011;7557;51.698;3.942;2023-07-29T13:41:31;830.13;;;782.42;;
9222;SDS011;7557;51.698;3.942;2023-07-29T13:43:59;838.83;;;791.17;;
9222;SDS011;7557;51.698;3.942;2023-07-29T13:46:26;849.70;;;799.75;;
9222;SDS011;7557;51.698;3.942;2023-07-29T13:48:53;837.03;;;788.00;;
9222;SDS011;7557;51.698;3.942;2023-07-29T13:51:22;865.00;;;814.13;;
9222;SDS011;7557;51.698;3.942;2023-07-29T13:53:49;871.67;;;819.58;;
9222;SDS011;7557;51.698;3.942;2023-07-29T13:56:17;835.88;;;788.05;;
9222;SDS011;7557;51.698;3.942;2023-07-29T13:58:44;859.03;;;809.92;;
9222;SDS011;7557;51.698;3.942;2023-07-29T14:01:12;860.47;;;810.03;;
9222;SDS011;7557;51.698;3.942;2023-07-29T14:03:39;841.72;;;793.55;;
9222;SDS011;7557;51.698;3.942;2023-07-29T14:06:09;835.38;;;788.30;;
9222;SDS011;7557;51.698;3.942;2023-07-29T14:08:38;899.65;;;842.55;;
9222;SDS011;7557;51.698;3.942;2023-07-29T14:11:07;794.72;;;752.60;;
9222;SDS011;7557;51.698;3.942;2023-07-29T14:13:34;774.33;;;733.35;;
9222;SDS011;7557;51.698;3.942;2023-07-29T14:16:02;856.67;;;807.20;;
9222;SDS011;7557;51.698;3.942;2023-07-29T14:18:30;800.92;;;757.22;;
9222;SDS011;7557;51.698;3.942;2023-07-29T14:20:58;812.15;;;767.83;;
9222;SDS011;7557;51.698;3.942;2023-07-29T14:23:28;847.15;;;798.22;;
9222;SDS011;7557;51.698;3.942;2023-07-29T14:25:57;780.22;;;738.85;;
9222;SDS011;7557;51.698;3.942;2023-07-29T14:28:24;805.40;;;762.20;;
9222;SDS011;7557;51.698;3.942;2023-07-29T14:30:52;802.17;;;757.83;;
9222;SDS011;7557;51.698;3.942;2023-07-29T14:33:20;824.58;;;778.72;;
9222;SDS011;7557;51.698;3.942;2023-07-29T14:35:47;763.38;;;723.38;;